sensor_id;sensor_type;location;lat;lon;timestamp;temperature;humidity
81192;DHT22;70665;47.652;-2.730;2023-07-30T00:01:14;17.10;83.20
81192;DHT22;70665;47.652;-2.730;2023-07-30T00:03:39;17.10;81.60
81192;DHT22;70665;47.652;-2.730;2023-07-30T00:06:05;17.10;80.40
81192;DHT22;70665;47.652;-2.730;2023-07-30T00:08:31;17.00;81.30
81192;DHT22;70665;47.652;-2.730;2023-07-30T00:10:57;17.10;83.80
81192;DHT22;70665;47.652;-2.730;2023-07-30T00:13:23;17.10;81.80
81192;DHT22;70665;47.652;-2.730;2023-07-30T00:15:49;17.10;83.10
81192;DHT22;70665;47.652;-2.730;2023-07-30T00:18:15;17.10;81.10
81192;DHT22;70665;47.652;-2.730;2023-07-30T00:20:41;17.00;82.20
81192;DHT22;70665;47.652;-2.730;2023-07-30T00:23:06;17.00;83.60
81192;DHT22;70665;47.652;-2.730;2023-07-30T00:25:32;17.10;81.10
81192;DHT22;70665;47.652;-2.730;2023-07-30T00:27:58;17.00;81.10
81192;DHT22;70665;47.652;-2.730;2023-07-30T00:30:24;17.00;82.20
81192;DHT22;70665;47.652;-2.730;2023-07-30T00:32:49;17.10;80.50
81192;DHT22;70665;47.652;-2.730;2023-07-30T00:35:15;17.00;83.50
81192;DHT22;70665;47.652;-2.730;2023-07-30T00:37:41;17.10;80.80
81192;DHT22;70665;47.652;-2.730;2023-07-30T00:40:07;17.10;81.30
81192;DHT22;70665;47.652;-2.730;2023-07-30T00:42:32;17.10;81.40
81192;DHT22;70665;47.652;-2.730;2023-07-30T00:44:58;17.10;83.20
81192;DHT22;70665;47.652;-2.730;2023-07-30T00:47:23;17.10;80.80
81192;DHT22;70665;47.652;-2.730;2023-07-30T00:49:49;17.10;83.20
81192;DHT22;70665;47.652;-2.730;2023-07-30T00:52:16;17.20;81.30
81192;DHT22;70665;47.652;-2.730;2023-07-30T00:54:43;17.10;80.70
81192;DHT22;70665;47.652;-2.730;2023-07-30T00:57:08;17.10;84.00
81192;DHT22;70665;47.652;-2.730;2023-07-30T00:59:34;17.00;81.90
81192;DHT22;70665;47.652;-2.730;2023-07-30T01:02:00;17.00;81.60
81192;DHT22;70665;47.652;-2.730;2023-07-30T01:04:28;17.00;81.20
81192;DHT22;70665;47.652;-2.730;2023-07-30T01:06:54;17.00;81.00
81192;DHT22;70665;47.652;-2.730;2023-07-30T01:09:20;17.00;83.50
81192;DHT22;70665;47.652;-2.730;2023-07-30T01:11:46;17.00;81.30
81192;DHT22;70665;47.652;-2.730;2023-07-30T01:14:12;17.00;83.80
81192;DHT22;70665;47.652;-2.730;2023-07-30T01:16:40;17.00;81.30
81192;DHT22;70665;47.652;-2.730;2023-07-30T01:19:05;17.00;83.70
81192;DHT22;70665;47.652;-2.730;2023-07-30T01:21:35;17.00;81.00
81192;DHT22;70665;47.652;-2.730;2023-07-30T01:24:01;17.00;81.30
81192;DHT22;70665;47.652;-2.730;2023-07-30T01:26:30;17.00;83.90
81192;DHT22;70665;47.652;-2.730;2023-07-30T01:28:59;17.00;81.90
81192;DHT22;70665;47.652;-2.730;2023-07-30T01:31:26;17.00;80.90
81192;DHT22;70665;47.652;-2.730;2023-07-30T01:33:54;16.90;81.60
81192;DHT22;70665;47.652;-2.730;2023-07-30T01:36:21;17.00;81.50
81192;DHT22;70665;47.652;-2.730;2023-07-30T01:38:49;17.00;81.90
81192;DHT22;70665;47.652;-2.730;2023-07-30T01:41:15;17.00;81.10
81192;DHT22;70665;47.652;-2.730;2023-07-30T01:43:41;17.00;81.60
81192;DHT22;70665;47.652;-2.730;2023-07-30T01:46:07;17.10;83.80
81192;DHT22;70665;47.652;-2.730;2023-07-30T01:48:32;17.20;81.30
81192;DHT22;70665;47.652;-2.730;2023-07-30T01:50:58;17.20;80.70
81192;DHT22;70665;47.652;-2.730;2023-07-30T01:53:24;17.20;81.30
81192;DHT22;70665;47.652;-2.730;2023-07-30T01:55:49;17.20;81.40
81192;DHT22;70665;47.652;-2.730;2023-07-30T01:58:15;17.20;83.60
81192;DHT22;70665;47.652;-2.730;2023-07-30T02:00:41;17.20;80.70
81192;DHT22;70665;47.652;-2.730;2023-07-30T02:03:06;17.40;80.30
81192;DHT22;70665;47.652;-2.730;2023-07-30T02:05:32;17.40;83.10
81192;DHT22;70665;47.652;-2.730;2023-07-30T02:07:58;17.40;80.90
81192;DHT22;70665;47.652;-2.730;2023-07-30T02:10:25;17.40;81.40
81192;DHT22;70665;47.652;-2.730;2023-07-30T02:12:50;17.50;83.00
81192;DHT22;70665;47.652;-2.730;2023-07-30T02:15:16;17.40;83.30
81192;DHT22;70665;47.652;-2.730;2023-07-30T02:17:42;17.50;80.90
81192;DHT22;70665;47.652;-2.730;2023-07-30T02:20:09;17.50;82.90
81192;DHT22;70665;47.652;-2.730;2023-07-30T02:22:34;17.40;80.30
81192;DHT22;70665;47.652;-2.730;2023-07-30T02:25:00;17.50;82.80
81192;DHT22;70665;47.652;-2.730;2023-07-30T02:27:25;17.40;80.40
81192;DHT22;70665;47.652;-2.730;2023-07-30T02:29:51;17.50;82.70
81192;DHT22;70665;47.652;-2.730;2023-07-30T02:32:16;17.50;80.20
81192;DHT22;70665;47.652;-2.730;2023-07-30T02:34:42;17.40;79.80
81192;DHT22;70665;47.652;-2.730;2023-07-30T02:37:08;17.40;82.70
81192;DHT22;70665;47.652;-2.730;2023-07-30T02:39:33;17.30;80.30
81192;DHT22;70665;47.652;-2.730;2023-07-30T02:41:59;17.30;83.20
81192;DHT22;70665;47.652;-2.730;2023-07-30T02:44:24;17.10;81.10
81192;DHT22;70665;47.652;-2.730;2023-07-30T02:46:50;17.10;81.60
81192;DHT22;70665;47.652;-2.730;2023-07-30T02:49:15;17.10;81.10
81192;DHT22;70665;47.652;-2.730;2023-07-30T02:51:41;17.10;83.80
81192;DHT22;70665;47.652;-2.730;2023-07-30T02:54:08;17.10;81.10
81192;DHT22;70665;47.652;-2.730;2023-07-30T02:56:35;17.00;81.00
81192;DHT22;70665;47.652;-2.730;2023-07-30T02:59:00;17.00;83.40
81192;DHT22;70665;47.652;-2.730;2023-07-30T03:01:26;17.00;81.10
81192;DHT22;70665;47.652;-2.730;2023-07-30T03:03:52;17.10;80.70
81192;DHT22;70665;47.652;-2.730;2023-07-30T03:06:17;17.10;80.60
81192;DHT22;70665;47.652;-2.730;2023-07-30T03:08:43;17.20;81.70
81192;DHT22;70665;47.652;-2.730;2023-07-30T03:11:09;17.30;80.60
81192;DHT22;70665;47.652;-2.730;2023-07-30T03:13:34;17.20;83.40
81192;DHT22;70665;47.652;-2.730;2023-07-30T03:16:00;17.30;80.40
81192;DHT22;70665;47.652;-2.730;2023-07-30T03:18:26;17.30;83.00
81192;DHT22;70665;47.652;-2.730;2023-07-30T03:20:57;17.30;81.70
81192;DHT22;70665;47.652;-2.730;2023-07-30T03:23:23;17.30;80.50
81192;DHT22;70665;47.652;-2.730;2023-07-30T03:25:49;17.40;82.90
81192;DHT22;70665;47.652;-2.730;2023-07-30T03:28:14;17.30;81.40
81192;DHT22;70665;47.652;-2.730;2023-07-30T03:30:40;17.40;82.30
81192;DHT22;70665;47.652;-2.730;2023-07-30T03:33:05;17.50;82.70
81192;DHT22;70665;47.652;-2.730;2023-07-30T03:35:31;17.40;80.70
81192;DHT22;70665;47.652;-2.730;2023-07-30T03:37:56;17.50;82.70
81192;DHT22;70665;47.652;-2.730;2023-07-30T03:40:22;17.40;80.40
81192;DHT22;70665;47.652;-2.730;2023-07-30T03:42:48;17.50;82.80
81192;DHT22;70665;47.652;-2.730;2023-07-30T03:45:14;17.40;81.60
81192;DHT22;70665;47.652;-2.730;2023-07-30T03:47:39;17.40;83.00
81192;DHT22;70665;47.652;-2.730;2023-07-30T03:50:05;17.40;80.90
81192;DHT22;70665;47.652;-2.730;2023-07-30T03:52:31;17.50;81.20
81192;DHT22;70665;47.652;-2.730;2023-07-30T03:54:57;17.50;83.00
81192;DHT22;70665;47.652;-2.730;2023-07-30T03:57:22;17.50;82.00
81192;DHT22;70665;47.652;-2.730;2023-07-30T03:59:48;17.50;80.50
81192;DHT22;70665;47.652;-2.730;2023-07-30T04:02:13;17.60;80.90
81192;DHT22;70665;47.652;-2.730;2023-07-30T04:04:41;17.60;80.50
81192;DHT22;70665;47.652;-2.730;2023-07-30T04:07:10;17.60;80.40
81192;DHT22;70665;47.652;-2.730;2023-07-30T04:09:36;17.60;82.40
81192;DHT22;70665;47.652;-2.730;2023-07-30T04:12:01;17.60;81.90
81192;DHT22;70665;47.652;-2.730;2023-07-30T04:14:27;17.70;80.50
81192;DHT22;70665;47.652;-2.730;2023-07-30T04:16:53;17.70;80.10
81192;DHT22;70665;47.652;-2.730;2023-07-30T04:19:18;17.70;81.10
81192;DHT22;70665;47.652;-2.730;2023-07-30T04:21:45;17.70;79.60
81192;DHT22;70665;47.652;-2.730;2023-07-30T04:24:10;17.70;82.10
81192;DHT22;70665;47.652;-2.730;2023-07-30T04:26:36;17.70;79.60
81192;DHT22;70665;47.652;-2.730;2023-07-30T04:29:01;17.70;81.70
81192;DHT22;70665;47.652;-2.730;2023-07-30T04:31:27;17.80;82.10
81192;DHT22;70665;47.652;-2.730;2023-07-30T04:33:52;17.70;79.70
81192;DHT22;70665;47.652;-2.730;2023-07-30T04:36:18;17.70;79.90
81192;DHT22;70665;47.652;-2.730;2023-07-30T04:38:43;17.70;79.80
81192;DHT22;70665;47.652;-2.730;2023-07-30T04:41:09;17.70;80.30
81192;DHT22;70665;47.652;-2.730;2023-07-30T04:43:35;17.70;79.40
81192;DHT22;70665;47.652;-2.730;2023-07-30T04:46:00;17.70;81.90
81192;DHT22;70665;47.652;-2.730;2023-07-30T04:48:26;17.70;79.90
81192;DHT22;70665;47.652;-2.730;2023-07-30T04:50:52;17.70;80.10
81192;DHT22;70665;47.652;-2.730;2023-07-30T04:53:17;17.70;82.10
81192;DHT22;70665;47.652;-2.730;2023-07-30T04:55:44;17.70;80.40
81192;DHT22;70665;47.652;-2.730;2023-07-30T04:58:09;17.70;81.80
81192;DHT22;70665;47.652;-2.730;2023-07-30T05:00:35;17.70;81.30
81192;DHT22;70665;47.652;-2.730;2023-07-30T05:03:00;17.80;81.50
81192;DHT22;70665;47.652;-2.730;2023-07-30T05:05:26;17.70;79.60
81192;DHT22;70665;47.652;-2.730;2023-07-30T05:07:51;17.80;80.30
81192;DHT22;70665;47.652;-2.730;2023-07-30T05:10:17;17.80;79.70
81192;DHT22;70665;47.652;-2.730;2023-07-30T05:12:42;17.90;81.50
81192;DHT22;70665;47.652;-2.730;2023-07-30T05:15:08;17.80;79.70
81192;DHT22;70665;47.652;-2.730;2023-07-30T05:17:34;17.80;81.00
81192;DHT22;70665;47.652;-2.730;2023-07-30T05:19:59;17.90;79.70
81192;DHT22;70665;47.652;-2.730;2023-07-30T05:22:25;17.90;79.00
81192;DHT22;70665;47.652;-2.730;2023-07-30T05:24:51;18.00;79.00
81192;DHT22;70665;47.652;-2.730;2023-07-30T05:27:16;18.00;81.00
81192;DHT22;70665;47.652;-2.730;2023-07-30T05:29:42;18.00;79.00
81192;DHT22;70665;47.652;-2.730;2023-07-30T05:32:09;18.00;79.30
81192;DHT22;70665;47.652;-2.730;2023-07-30T05:34:35;18.00;79.10
81192;DHT22;70665;47.652;-2.730;2023-07-30T05:37:00;18.00;81.00
81192;DHT22;70665;47.652;-2.730;2023-07-30T05:39:26;18.00;80.40
81192;DHT22;70665;47.652;-2.730;2023-07-30T05:41:52;18.10;79.30
81192;DHT22;70665;47.652;-2.730;2023-07-30T05:44:17;18.00;79.60
81192;DHT22;70665;47.652;-2.730;2023-07-30T05:46:43;18.00;80.10
81192;DHT22;70665;47.652;-2.730;2023-07-30T05:49:09;18.00;78.90
81192;DHT22;70665;47.652;-2.730;2023-07-30T05:51:34;18.00;81.00
81192;DHT22;70665;47.652;-2.730;2023-07-30T05:54:00;18.00;79.40
81192;DHT22;70665;47.652;-2.730;2023-07-30T05:56:25;17.90;81.40
81192;DHT22;70665;47.652;-2.730;2023-07-30T05:58:51;17.90;80.40
81192;DHT22;70665;47.652;-2.730;2023-07-30T06:01:16;18.00;79.60
81192;DHT22;70665;47.652;-2.730;2023-07-30T06:03:42;18.00;81.00
81192;DHT22;70665;47.652;-2.730;2023-07-30T06:06:08;18.10;80.50
81192;DHT22;70665;47.652;-2.730;2023-07-30T06:08:34;18.10;79.30
81192;DHT22;70665;47.652;-2.730;2023-07-30T06:11:02;18.30;80.90
81192;DHT22;70665;47.652;-2.730;2023-07-30T06:13:28;18.20;79.30
81192;DHT22;70665;47.652;-2.730;2023-07-30T06:15:54;18.10;79.90
81192;DHT22;70665;47.652;-2.730;2023-07-30T06:18:20;18.20;79.20
81192;DHT22;70665;47.652;-2.730;2023-07-30T06:20:46;18.30;80.40
81192;DHT22;70665;47.652;-2.730;2023-07-30T06:23:12;18.50;79.00
81192;DHT22;70665;47.652;-2.730;2023-07-30T06:25:37;18.70;78.30
81192;DHT22;70665;47.652;-2.730;2023-07-30T06:28:04;18.80;78.80
81192;DHT22;70665;47.652;-2.730;2023-07-30T06:30:31;18.90;78.30
81192;DHT22;70665;47.652;-2.730;2023-07-30T06:32:57;18.90;77.60
81192;DHT22;70665;47.652;-2.730;2023-07-30T06:35:22;19.10;77.60
81192;DHT22;70665;47.652;-2.730;2023-07-30T06:37:49;19.20;76.40
81192;DHT22;70665;47.652;-2.730;2023-07-30T06:40:14;19.40;76.40
81192;DHT22;70665;47.652;-2.730;2023-07-30T06:42:40;19.60;76.50
81192;DHT22;70665;47.652;-2.730;2023-07-30T06:45:06;19.60;75.50
81192;DHT22;70665;47.652;-2.730;2023-07-30T06:47:32;19.60;75.40
81192;DHT22;70665;47.652;-2.730;2023-07-30T06:49:57;19.70;75.70
81192;DHT22;70665;47.652;-2.730;2023-07-30T06:52:23;19.70;74.80
81192;DHT22;70665;47.652;-2.730;2023-07-30T06:54:48;19.70;75.10
81192;DHT22;70665;47.652;-2.730;2023-07-30T06:57:14;19.60;74.00
81192;DHT22;70665;47.652;-2.730;2023-07-30T06:59:40;19.70;74.20
81192;DHT22;70665;47.652;-2.730;2023-07-30T07:02:06;19.70;73.30
81192;DHT22;70665;47.652;-2.730;2023-07-30T07:04:31;19.70;72.90
81192;DHT22;70665;47.652;-2.730;2023-07-30T07:06:57;19.60;73.70
81192;DHT22;70665;47.652;-2.730;2023-07-30T07:09:22;19.50;74.50
81192;DHT22;70665;47.652;-2.730;2023-07-30T07:11:48;19.50;73.70
81192;DHT22;70665;47.652;-2.730;2023-07-30T07:14:14;19.60;73.80
81192;DHT22;70665;47.652;-2.730;2023-07-30T07:16:39;19.70;73.50
81192;DHT22;70665;47.652;-2.730;2023-07-30T07:19:05;19.70;73.50
81192;DHT22;70665;47.652;-2.730;2023-07-30T07:21:31;19.80;73.20
81192;DHT22;70665;47.652;-2.730;2023-07-30T07:23:56;19.80;73.50
81192;DHT22;70665;47.652;-2.730;2023-07-30T07:26:22;19.80;73.20
81192;DHT22;70665;47.652;-2.730;2023-07-30T07:28:48;19.70;73.40
81192;DHT22;70665;47.652;-2.730;2023-07-30T07:31:13;19.70;73.90
81192;DHT22;70665;47.652;-2.730;2023-07-30T07:33:39;19.70;73.50
81192;DHT22;70665;47.652;-2.730;2023-07-30T07:36:06;19.60;73.30
81192;DHT22;70665;47.652;-2.730;2023-07-30T07:38:32;19.60;73.30
81192;DHT22;70665;47.652;-2.730;2023-07-30T07:40:59;19.70;74.10
81192;DHT22;70665;47.652;-2.730;2023-07-30T07:43:25;19.60;74.30
81192;DHT22;70665;47.652;-2.730;2023-07-30T07:45:50;19.60;74.10
81192;DHT22;70665;47.652;-2.730;2023-07-30T07:48:16;19.80;73.20
81192;DHT22;70665;47.652;-2.730;2023-07-30T07:50:41;20.00;72.80
81192;DHT22;70665;47.652;-2.730;2023-07-30T07:53:07;20.30;71.70
81192;DHT22;70665;47.652;-2.730;2023-07-30T07:55:32;20.40;70.90
81192;DHT22;70665;47.652;-2.730;2023-07-30T07:57:58;20.40;70.80
81192;DHT22;70665;47.652;-2.730;2023-07-30T08:00:24;20.50;70.70
81192;DHT22;70665;47.652;-2.730;2023-07-30T08:02:49;20.50;71.00
81192;DHT22;70665;47.652;-2.730;2023-07-30T08:05:15;20.60;70.50
81192;DHT22;70665;47.652;-2.730;2023-07-30T08:07:41;20.80;69.00
81192;DHT22;70665;47.652;-2.730;2023-07-30T08:10:07;20.90;67.60
81192;DHT22;70665;47.652;-2.730;2023-07-30T08:12:33;20.90;68.10
81192;DHT22;70665;47.652;-2.730;2023-07-30T08:14:58;21.10;68.30
81192;DHT22;70665;47.652;-2.730;2023-07-30T08:17:25;21.20;67.90
81192;DHT22;70665;47.652;-2.730;2023-07-30T08:19:50;21.50;67.80
81192;DHT22;70665;47.652;-2.730;2023-07-30T08:22:16;21.50;67.40
81192;DHT22;70665;47.652;-2.730;2023-07-30T08:24:41;21.50;67.30
81192;DHT22;70665;47.652;-2.730;2023-07-30T08:27:07;21.10;67.20
81192;DHT22;70665;47.652;-2.730;2023-07-30T08:29:33;21.10;66.70
81192;DHT22;70665;47.652;-2.730;2023-07-30T08:31:59;20.90;67.40
81192;DHT22;70665;47.652;-2.730;2023-07-30T08:34:25;21.10;67.80
81192;DHT22;70665;47.652;-2.730;2023-07-30T08:36:50;21.60;67.20
81192;DHT22;70665;47.652;-2.730;2023-07-30T08:39:16;21.90;66.90
81192;DHT22;70665;47.652;-2.730;2023-07-30T08:41:42;22.00;64.20
81192;DHT22;70665;47.652;-2.730;2023-07-30T08:44:09;22.20;64.20
81192;DHT22;70665;47.652;-2.730;2023-07-30T08:46:35;22.30;63.70
81192;DHT22;70665;47.652;-2.730;2023-07-30T08:49:00;22.40;63.20
81192;DHT22;70665;47.652;-2.730;2023-07-30T08:51:26;22.50;63.30
81192;DHT22;70665;47.652;-2.730;2023-07-30T08:53:52;22.80;62.90
81192;DHT22;70665;47.652;-2.730;2023-07-30T08:56:19;22.80;60.50
81192;DHT22;70665;47.652;-2.730;2023-07-30T08:58:45;22.70;61.20
81192;DHT22;70665;47.652;-2.730;2023-07-30T09:01:12;22.70;61.00
81192;DHT22;70665;47.652;-2.730;2023-07-30T09:03:39;22.70;60.50
81192;DHT22;70665;47.652;-2.730;2023-07-30T09:06:06;22.70;61.80
81192;DHT22;70665;47.652;-2.730;2023-07-30T09:08:31;22.80;60.30
81192;DHT22;70665;47.652;-2.730;2023-07-30T09:11:09;23.10;59.50
81192;DHT22;70665;47.652;-2.730;2023-07-30T09:13:39;23.20;58.10
81192;DHT22;70665;47.652;-2.730;2023-07-30T09:16:09;23.20;58.70
81192;DHT22;70665;47.652;-2.730;2023-07-30T09:18:46;23.30;57.40
81192;DHT22;70665;47.652;-2.730;2023-07-30T09:21:12;23.40;58.00
81192;DHT22;70665;47.652;-2.730;2023-07-30T09:23:46;23.20;58.20
81192;DHT22;70665;47.652;-2.730;2023-07-30T09:26:12;23.40;58.90
81192;DHT22;70665;47.652;-2.730;2023-07-30T09:28:39;23.50;60.10
81192;DHT22;70665;47.652;-2.730;2023-07-30T09:31:07;23.70;61.50
81192;DHT22;70665;47.652;-2.730;2023-07-30T09:33:34;23.80;58.40
81192;DHT22;70665;47.652;-2.730;2023-07-30T09:36:04;23.70;59.30
81192;DHT22;70665;47.652;-2.730;2023-07-30T09:38:30;23.90;58.80
81192;DHT22;70665;47.652;-2.730;2023-07-30T09:41:02;23.90;58.40
81192;DHT22;70665;47.652;-2.730;2023-07-30T09:43:34;24.00;58.10
81192;DHT22;70665;47.652;-2.730;2023-07-30T09:46:07;23.90;57.70
81192;DHT22;70665;47.652;-2.730;2023-07-30T09:48:34;23.80;59.20
81192;DHT22;70665;47.652;-2.730;2023-07-30T09:51:01;23.70;57.80
81192;DHT22;70665;47.652;-2.730;2023-07-30T09:53:32;23.60;58.60
81192;DHT22;70665;47.652;-2.730;2023-07-30T09:56:03;23.40;57.50
81192;DHT22;70665;47.652;-2.730;2023-07-30T09:58:30;23.70;58.80
81192;DHT22;70665;47.652;-2.730;2023-07-30T10:00:58;23.70;57.60
81192;DHT22;70665;47.652;-2.730;2023-07-30T10:03:25;24.00;57.60
81192;DHT22;70665;47.652;-2.730;2023-07-30T10:05:55;24.10;56.90
81192;DHT22;70665;47.652;-2.730;2023-07-30T10:08:25;23.80;59.30
81192;DHT22;70665;47.652;-2.730;2023-07-30T10:10:54;23.50;59.30
81192;DHT22;70665;47.652;-2.730;2023-07-30T10:13:21;23.50;60.00
81192;DHT22;70665;47.652;-2.730;2023-07-30T10:15:47;23.70;59.50
81192;DHT22;70665;47.652;-2.730;2023-07-30T10:18:13;23.70;59.70
81192;DHT22;70665;47.652;-2.730;2023-07-30T10:20:39;24.00;61.70
81192;DHT22;70665;47.652;-2.730;2023-07-30T10:23:05;23.90;58.30
81192;DHT22;70665;47.652;-2.730;2023-07-30T10:25:52;23.80;58.00
81192;DHT22;70665;47.652;-2.730;2023-07-30T10:31:01;24.00;56.50
81192;DHT22;70665;47.652;-2.730;2023-07-30T10:33:49;23.70;61.20
81192;DHT22;70665;47.652;-2.730;2023-07-30T10:36:18;23.50;62.80
81192;DHT22;70665;47.652;-2.730;2023-07-30T10:38:44;23.20;64.00
81192;DHT22;70665;47.652;-2.730;2023-07-30T10:41:13;23.00;64.80
81192;DHT22;70665;47.652;-2.730;2023-07-30T10:43:41;22.90;64.70
81192;DHT22;70665;47.652;-2.730;2023-07-30T10:46:08;23.30;63.50
81192;DHT22;70665;47.652;-2.730;2023-07-30T10:48:36;23.50;63.60
81192;DHT22;70665;47.652;-2.730;2023-07-30T10:51:04;23.50;62.90
81192;DHT22;70665;47.652;-2.730;2023-07-30T10:53:30;23.60;63.60
81192;DHT22;70665;47.652;-2.730;2023-07-30T10:55:59;23.50;62.30
81192;DHT22;70665;47.652;-2.730;2023-07-30T10:58:30;23.40;63.30
81192;DHT22;70665;47.652;-2.730;2023-07-30T11:00:56;23.40;62.90
81192;DHT22;70665;47.652;-2.730;2023-07-30T11:03:24;23.20;62.90
81192;DHT22;70665;47.652;-2.730;2023-07-30T11:05:51;23.40;62.90
81192;DHT22;70665;47.652;-2.730;2023-07-30T11:08:17;23.60;62.60
81192;DHT22;70665;47.652;-2.730;2023-07-30T11:10:46;23.70;62.20
81192;DHT22;70665;47.652;-2.730;2023-07-30T11:13:14;23.80;62.30
81192;DHT22;70665;47.652;-2.730;2023-07-30T11:15:43;23.60;63.10
81192;DHT22;70665;47.652;-2.730;2023-07-30T11:18:12;23.70;63.90
81192;DHT22;70665;47.652;-2.730;2023-07-30T11:20:38;23.60;63.20
81192;DHT22;70665;47.652;-2.730;2023-07-30T11:23:24;23.40;63.50
81192;DHT22;70665;47.652;-2.730;2023-07-30T11:25:50;23.50;63.00
81192;DHT22;70665;47.652;-2.730;2023-07-30T11:28:33;23.70;63.10
81192;DHT22;70665;47.652;-2.730;2023-07-30T11:31:04;24.10;60.40
81192;DHT22;70665;47.652;-2.730;2023-07-30T11:33:31;24.60;60.50
81192;DHT22;70665;47.652;-2.730;2023-07-30T11:35:57;25.00;59.90
81192;DHT22;70665;47.652;-2.730;2023-07-30T11:38:27;25.00;59.50
81192;DHT22;70665;47.652;-2.730;2023-07-30T11:40:53;24.80;60.20
81192;DHT22;70665;47.652;-2.730;2023-07-30T11:43:21;24.80;60.10
81192;DHT22;70665;47.652;-2.730;2023-07-30T11:45:46;24.80;60.90
81192;DHT22;70665;47.652;-2.730;2023-07-30T11:48:12;24.80;61.70
81192;DHT22;70665;47.652;-2.730;2023-07-30T11:50:49;24.40;59.40
81192;DHT22;70665;47.652;-2.730;2023-07-30T11:53:15;24.40;59.30
81192;DHT22;70665;47.652;-2.730;2023-07-30T11:55:42;24.60;59.90
81192;DHT22;70665;47.652;-2.730;2023-07-30T11:58:09;24.50;60.20
81192;DHT22;70665;47.652;-2.730;2023-07-30T12:00:39;24.60;60.00
81192;DHT22;70665;47.652;-2.730;2023-07-30T12:03:08;24.50;59.80
81192;DHT22;70665;47.652;-2.730;2023-07-30T12:05:36;24.70;60.50
81192;DHT22;70665;47.652;-2.730;2023-07-30T12:08:03;24.90;60.20
81192;DHT22;70665;47.652;-2.730;2023-07-30T12:10:49;24.60;60.50
81192;DHT22;70665;47.652;-2.730;2023-07-30T12:13:18;24.60;60.30
81192;DHT22;70665;47.652;-2.730;2023-07-30T12:15:54;24.70;60.20
81192;DHT22;70665;47.652;-2.730;2023-07-30T12:18:21;25.00;58.60
81192;DHT22;70665;47.652;-2.730;2023-07-30T12:20:47;25.50;57.70
81192;DHT22;70665;47.652;-2.730;2023-07-30T12:23:13;25.30;57.80
81192;DHT22;70665;47.652;-2.730;2023-07-30T12:25:39;25.30;58.30
81192;DHT22;70665;47.652;-2.730;2023-07-30T12:28:05;25.10;57.60
81192;DHT22;70665;47.652;-2.730;2023-07-30T12:30:30;25.10;58.40
81192;DHT22;70665;47.652;-2.730;2023-07-30T12:32:56;25.30;59.40
81192;DHT22;70665;47.652;-2.730;2023-07-30T12:35:22;24.70;60.40
81192;DHT22;70665;47.652;-2.730;2023-07-30T12:37:48;24.50;61.90
81192;DHT22;70665;47.652;-2.730;2023-07-30T12:40:14;24.30;61.70
81192;DHT22;70665;47.652;-2.730;2023-07-30T12:42:39;24.10;62.30
81192;DHT22;70665;47.652;-2.730;2023-07-30T12:45:05;23.90;63.00
81192;DHT22;70665;47.652;-2.730;2023-07-30T12:47:32;23.70;64.40
81192;DHT22;70665;47.652;-2.730;2023-07-30T12:49:58;23.60;64.10
81192;DHT22;70665;47.652;-2.730;2023-07-30T12:52:23;23.60;64.40
81192;DHT22;70665;47.652;-2.730;2023-07-30T12:54:49;23.70;63.70
81192;DHT22;70665;47.652;-2.730;2023-07-30T12:57:15;24.00;63.50
81192;DHT22;70665;47.652;-2.730;2023-07-30T12:59:41;24.20;63.10
81192;DHT22;70665;47.652;-2.730;2023-07-30T13:02:06;24.40;62.90
81192;DHT22;70665;47.652;-2.730;2023-07-30T13:04:32;24.30;63.10
81192;DHT22;70665;47.652;-2.730;2023-07-30T13:06:57;24.30;63.20
81192;DHT22;70665;47.652;-2.730;2023-07-30T13:09:23;24.30;60.10
81192;DHT22;70665;47.652;-2.730;2023-07-30T13:11:49;24.30;60.00
81192;DHT22;70665;47.652;-2.730;2023-07-30T13:14:14;24.40;59.90
81192;DHT22;70665;47.652;-2.730;2023-07-30T13:16:40;24.50;61.10
81192;DHT22;70665;47.652;-2.730;2023-07-30T13:19:05;24.30;58.60
81192;DHT22;70665;47.652;-2.730;2023-07-30T13:21:31;24.10;58.90
81192;DHT22;70665;47.652;-2.730;2023-07-30T13:23:57;23.80;60.00
81192;DHT22;70665;47.652;-2.730;2023-07-30T13:26:22;23.80;60.20
81192;DHT22;70665;47.652;-2.730;2023-07-30T13:28:48;23.80;61.70
81192;DHT22;70665;47.652;-2.730;2023-07-30T13:31:14;24.00;60.70
81192;DHT22;70665;47.652;-2.730;2023-07-30T13:33:40;24.20;60.80
81192;DHT22;70665;47.652;-2.730;2023-07-30T13:36:06;24.40;61.20
81192;DHT22;70665;47.652;-2.730;2023-07-30T13:38:32;24.40;59.50
81192;DHT22;70665;47.652;-2.730;2023-07-30T13:40:58;25.30;57.80
81192;DHT22;70665;47.652;-2.730;2023-07-30T13:43:23;25.70;56.30
81192;DHT22;70665;47.652;-2.730;2023-07-30T13:45:49;27.20;54.80
81192;DHT22;70665;47.652;-2.730;2023-07-30T13:48:16;26.80;55.30
81192;DHT22;70665;47.652;-2.730;2023-07-30T13:50:42;26.10;55.90
81192;DHT22;70665;47.652;-2.730;2023-07-30T13:53:07;25.50;56.80
81192;DHT22;70665;47.652;-2.730;2023-07-30T13:55:33;24.80;57.10
81192;DHT22;70665;47.652;-2.730;2023-07-30T13:57:59;24.50;60.40
81192;DHT22;70665;47.652;-2.730;2023-07-30T14:00:24;25.20;58.10
81192;DHT22;70665;47.652;-2.730;2023-07-30T14:02:50;26.90;54.10
81192;DHT22;70665;47.652;-2.730;2023-07-30T14:05:16;27.10;51.10
81192;DHT22;70665;47.652;-2.730;2023-07-30T14:07:42;26.50;52.20
81192;DHT22;70665;47.652;-2.730;2023-07-30T14:10:08;26.90;53.80
81192;DHT22;70665;47.652;-2.730;2023-07-30T14:12:34;26.20;53.10
81192;DHT22;70665;47.652;-2.730;2023-07-30T14:15:00;26.90;52.30
81192;DHT22;70665;47.652;-2.730;2023-07-30T14:17:26;28.10;49.50
81192;DHT22;70665;47.652;-2.730;2023-07-30T14:19:52;27.10;50.20
81192;DHT22;70665;47.652;-2.730;2023-07-30T14:22:18;26.80;52.70
81192;DHT22;70665;47.652;-2.730;2023-07-30T14:24:44;26.10;52.00
81192;DHT22;70665;47.652;-2.730;2023-07-30T14:27:10;27.00;51.00
81192;DHT22;70665;47.652;-2.730;2023-07-30T14:29:35;27.60;50.20
81192;DHT22;70665;47.652;-2.730;2023-07-30T14:32:01;28.90;48.70
81192;DHT22;70665;47.652;-2.730;2023-07-30T14:34:27;30.10;46.60
81192;DHT22;70665;47.652;-2.730;2023-07-30T14:36:52;29.00;47.50
81192;DHT22;70665;47.652;-2.730;2023-07-30T14:39:18;27.60;49.30
81192;DHT22;70665;47.652;-2.730;2023-07-30T14:41:44;27.00;51.40
81192;DHT22;70665;47.652;-2.730;2023-07-30T14:44:10;26.30;51.60
81192;DHT22;70665;47.652;-2.730;2023-07-30T14:46:35;27.00;50.60
81192;DHT22;70665;47.652;-2.730;2023-07-30T14:49:01;26.50;53.00
81192;DHT22;70665;47.652;-2.730;2023-07-30T14:51:27;26.90;51.70
81192;DHT22;70665;47.652;-2.730;2023-07-30T14:53:53;26.20;52.70
81192;DHT22;70665;47.652;-2.730;2023-07-30T14:56:19;25.70;54.20
81192;DHT22;70665;47.652;-2.730;2023-07-30T14:58:44;25.70;55.70
81192;DHT22;70665;47.652;-2.730;2023-07-30T15:01:10;25.80;56.20
81192;DHT22;70665;47.652;-2.730;2023-07-30T15:03:35;26.20;52.20
81192;DHT22;70665;47.652;-2.730;2023-07-30T15:06:02;27.60;48.10
81192;DHT22;70665;47.652;-2.730;2023-07-30T15:08:28;29.10;46.00
81192;DHT22;70665;47.652;-2.730;2023-07-30T15:10:55;29.20;45.70
81192;DHT22;70665;47.652;-2.730;2023-07-30T15:13:21;29.70;47.00